createdAt,value
2022-09-07T00:02:07.938Z,7.43
2022-09-07T00:04:43.651Z,3.57
2022-09-07T00:07:10.380Z,6.47
2022-09-07T00:09:37.063Z,3.40
2022-09-07T00:12:03.917Z,3.38
2022-09-07T00:14:30.776Z,3.50
2022-09-07T00:17:00.344Z,4.30
2022-09-07T00:19:27.006Z,11.07
2022-09-07T00:21:53.636Z,9.30
2022-09-07T00:24:20.286Z,3.40
2022-09-07T00:26:46.895Z,3.70
2022-09-07T00:29:13.533Z,4.60
2022-09-07T00:31:40.255Z,10.00
2022-09-07T00:34:06.952Z,5.00
2022-09-07T00:36:33.649Z,9.40
2022-09-07T00:39:00.269Z,12.27
2022-09-07T00:41:26.966Z,6.20
2022-09-07T00:44:00.447Z,4.20
2022-09-07T00:46:30.598Z,4.28
2022-09-07T00:49:12.087Z,6.05
2022-09-07T00:51:55.843Z,4.95
2022-09-07T00:54:28.371Z,4.40
2022-09-07T00:56:55.210Z,3.80
2022-09-07T00:59:34.549Z,5.07
2022-09-07T01:02:01.865Z,3.05
2022-09-07T01:04:30.371Z,3.05
2022-09-07T01:06:57.476Z,4.83
2022-09-07T01:09:33.041Z,5.13
2022-09-07T01:12:01.575Z,3.38
2022-09-07T01:14:42.283Z,2.67
2022-09-07T01:17:41.604Z,4.18
2022-09-07T01:20:29.226Z,3.50
2022-09-07T01:23:26.407Z,3.58
2022-09-07T01:26:11.874Z,3.85
2022-09-07T01:29:04.332Z,3.38
2022-09-07T01:32:02.406Z,3.20
2022-09-07T01:34:29.188Z,3.73
2022-09-07T01:37:35.500Z,2.58
2022-09-07T01:40:05.190Z,2.92
2022-09-07T01:42:56.219Z,3.80
2022-09-07T01:45:30.391Z,10.35
2022-09-07T01:48:26.194Z,3.17
2022-09-07T01:55:22.459Z,8.60
2022-09-07T01:57:58.233Z,6.35
2022-09-07T02:00:25.242Z,6.90
2022-09-07T02:03:00.605Z,7.63
2022-09-07T02:05:35.853Z,7.95
2022-09-07T02:08:10.631Z,8.15
2022-09-07T02:10:42.218Z,1.92
2022-09-07T02:13:35.291Z,5.82
2022-09-07T02:16:09.099Z,4.30
2022-09-07T02:18:58.581Z,2.10
2022-09-07T02:21:48.636Z,6.57
2022-09-07T02:24:26.226Z,4.22
2022-09-07T02:29:57.273Z,6.20
2022-09-07T02:32:23.962Z,1.70
2022-09-07T02:34:57.380Z,3.17
2022-09-07T02:37:27.062Z,2.97
2022-09-07T02:40:00.074Z,2.88
2022-09-07T02:42:42.560Z,1.60
2022-09-07T02:45:12.036Z,4.88
2022-09-07T02:47:53.606Z,3.00
2022-09-07T02:50:39.415Z,5.32
2022-09-07T02:53:31.465Z,4.75
2022-09-07T02:56:25.051Z,1.80
2022-09-07T02:59:07.425Z,4.10
2022-09-07T03:01:55.683Z,2.25
2022-09-07T03:04:48.971Z,3.92
2022-09-07T03:07:26.644Z,4.07
2022-09-07T03:09:56.307Z,1.80
2022-09-07T03:12:23.256Z,4.43
2022-09-07T03:14:50.551Z,2.80
2022-09-07T03:17:17.269Z,1.60
2022-09-07T03:19:43.951Z,2.25
2022-09-07T03:22:27.972Z,3.43
2022-09-07T03:24:54.587Z,2.88
2022-09-07T03:27:24.660Z,5.40
2022-09-07T03:29:51.453Z,2.15
2022-09-07T03:32:25.564Z,2.35
2022-09-07T03:34:55.175Z,1.50
2022-09-07T03:37:25.007Z,3.17
2022-09-07T03:39:51.831Z,5.00
2022-09-07T03:42:18.671Z,2.35
2022-09-07T03:44:45.320Z,2.78
2022-09-07T03:47:12.592Z,4.30
2022-09-07T03:49:39.425Z,1.73
2022-09-07T03:52:06.178Z,2.13
2022-09-07T03:54:34.946Z,2.88
2022-09-07T03:57:15.090Z,3.05
2022-09-07T03:59:41.754Z,0.93
2022-09-07T04:02:11.523Z,9.25
2022-09-07T04:04:38.434Z,3.92
2022-09-07T04:07:05.410Z,4.53
2022-09-07T04:09:32.290Z,1.63
2022-09-07T04:11:58.984Z,1.40
2022-09-07T04:14:34.594Z,1.77
2022-09-07T04:17:01.298Z,2.67
2022-09-07T04:19:29.556Z,4.75
2022-09-07T04:21:56.219Z,3.38
2022-09-07T04:24:31.784Z,2.77
2022-09-07T04:26:58.592Z,6.72
2022-09-07T04:29:25.279Z,4.55
2022-09-07T04:31:51.916Z,9.25
2022-09-07T04:34:18.542Z,4.65
2022-09-07T04:36:45.202Z,1.90
2022-09-07T04:39:14.348Z,2.88
2022-09-07T04:41:41.048Z,5.32
2022-09-07T04:44:07.801Z,4.70
2022-09-07T04:46:36.537Z,3.88
2022-09-07T04:49:12.380Z,4.10
2022-09-07T04:51:39.771Z,2.55
2022-09-07T04:54:06.621Z,5.93
2022-09-07T04:56:33.950Z,10.35
2022-09-07T04:59:03.817Z,6.95
2022-09-07T05:01:30.634Z,9.70
2022-09-07T05:04:02.472Z,4.45
2022-09-07T05:06:29.536Z,4.78
2022-09-07T05:11:49.318Z,3.60
2022-09-07T05:14:22.375Z,8.37
2022-09-07T05:16:49.158Z,3.78
2022-09-07T05:19:15.789Z,4.43
2022-09-07T05:21:42.728Z,11.38
2022-09-07T05:24:18.481Z,8.45
2022-09-07T05:26:45.192Z,7.67
2022-09-07T05:31:58.567Z,7.55
2022-09-07T05:36:55.136Z,4.80
2022-09-07T05:40:18.064Z,4.93
2022-09-07T05:42:44.727Z,4.90
2022-09-07T05:45:11.717Z,6.85
2022-09-07T05:47:38.533Z,9.25
2022-09-07T05:50:07.169Z,4.07
2022-09-07T05:52:36.351Z,4.90
2022-09-07T05:55:26.213Z,4.85
2022-09-07T05:57:57.850Z,4.50
2022-09-07T06:00:27.891Z,4.20
2022-09-07T06:02:54.581Z,5.00
2022-09-07T06:05:21.283Z,4.87
2022-09-07T06:07:48.082Z,4.43
2022-09-07T06:13:03.563Z,10.63
2022-09-07T06:15:32.729Z,11.18
2022-09-07T06:18:01.822Z,4.70
2022-09-07T06:20:28.440Z,6.88
2022-09-07T06:22:55.023Z,11.27
2022-09-07T06:25:21.791Z,7.68
2022-09-07T06:27:49.439Z,10.50
2022-09-07T06:30:17.649Z,6.40
2022-09-07T06:32:44.783Z,7.35
2022-09-07T06:35:13.761Z,10.68
2022-09-07T06:37:41.122Z,6.82
2022-09-07T06:40:08.703Z,5.90
2022-09-07T06:42:35.542Z,5.67
2022-09-07T06:45:02.375Z,6.75
2022-09-07T06:47:37.527Z,6.13
2022-09-07T06:56:34.752Z,8.43
2022-09-07T07:02:23.920Z,9.25
2022-09-07T07:07:55.530Z,10.20
2022-09-07T07:10:38.494Z,7.77
2022-09-07T07:13:05.331Z,8.02
2022-09-07T07:15:50.180Z,8.10
2022-09-07T07:18:38.684Z,10.25
2022-09-07T07:29:32.091Z,13.40
2022-09-07T07:32:10.942Z,9.48
2022-09-07T11:00:34.157Z,2.00
2022-09-07T11:31:04.070Z,2.00
2022-09-07T11:40:34.491Z,2.35
2022-09-07T11:58:28.395Z,3.58
2022-09-07T12:22:39.996Z,2.45
2022-09-07T12:36:48.398Z,1.85
2022-09-07T12:58:41.250Z,1.80
2022-09-07T13:01:40.189Z,2.93
2022-09-07T13:04:47.874Z,3.55
2022-09-07T13:10:33.763Z,1.80
2022-09-07T13:19:47.007Z,3.78
2022-09-07T13:22:36.011Z,1.60
2022-09-07T13:25:33.258Z,2.10
2022-09-07T13:28:31.943Z,2.13
2022-09-07T13:31:23.631Z,3.00
2022-09-07T13:33:56.054Z,3.03
2022-09-07T13:45:03.541Z,2.80
2022-09-07T13:51:05.953Z,3.00
2022-09-07T13:53:42.350Z,3.17
2022-09-07T13:56:41.900Z,1.80
2022-09-07T13:59:28.200Z,3.50
2022-09-07T14:02:03.880Z,2.53
2022-09-07T14:26:20.614Z,2.88
2022-09-07T14:28:54.811Z,1.30
2022-09-07T14:41:30.176Z,2.80
2022-09-07T14:51:34.997Z,1.60
2022-09-07T14:54:43.227Z,1.38
2022-09-07T14:57:31.397Z,2.67
2022-09-07T15:00:31.456Z,1.87
2022-09-07T15:10:34.386Z,2.75
2022-09-07T15:13:41.707Z,4.28
2022-09-07T15:16:39.126Z,2.50
2022-09-07T15:32:28.707Z,1.80
2022-09-07T15:54:13.820Z,1.88
2022-09-07T16:00:22.286Z,1.52
2022-09-07T16:03:07.496Z,1.47
2022-09-07T16:05:42.453Z,2.75
2022-09-07T16:08:25.627Z,2.70
2022-09-07T16:11:24.001Z,1.48
2022-09-07T16:14:04.483Z,2.75
2022-09-07T16:20:32.232Z,2.25
2022-09-07T16:26:05.301Z,1.73
2022-09-07T17:01:00.674Z,2.22
2022-09-07T17:03:28.400Z,2.33
2022-09-07T17:14:47.128Z,2.33
2022-09-07T17:17:13.742Z,2.20
2022-09-07T17:19:40.582Z,1.97
2022-09-07T17:22:09.177Z,2.42
2022-09-07T17:24:48.586Z,3.10
2022-09-07T17:27:18.084Z,3.83
2022-09-07T17:29:44.873Z,2.22
2022-09-07T17:32:26.927Z,4.93
2022-09-07T17:34:56.835Z,4.18
2022-09-07T17:37:23.529Z,1.55
2022-09-07T17:39:50.265Z,3.13
2022-09-07T17:42:17.037Z,5.50
2022-09-07T17:44:53.088Z,2.77
2022-09-07T17:47:20.003Z,4.05
2022-09-07T17:49:47.911Z,2.97
2022-09-07T17:52:14.549Z,2.08
2022-09-07T17:54:42.034Z,3.53
2022-09-07T17:57:09.007Z,2.13
2022-09-07T18:05:07.022Z,2.05
2022-09-07T18:07:34.045Z,10.63
2022-09-07T18:10:00.623Z,3.03
2022-09-07T18:12:27.220Z,3.67
2022-09-07T18:14:54.105Z,3.47
2022-09-07T18:17:42.471Z,5.07
2022-09-07T18:22:53.024Z,5.30
2022-09-07T18:25:20.690Z,7.97
2022-09-07T18:29:03.013Z,21.17
2022-09-07T18:30:38.085Z,9.98
2022-09-07T18:33:07.148Z,6.82
2022-09-07T18:35:34.175Z,7.37
2022-09-07T18:38:01.768Z,7.03
2022-09-07T18:40:28.412Z,8.77
2022-09-07T18:43:04.573Z,15.40
2022-09-07T18:45:43.465Z,11.60
2022-09-07T18:48:25.079Z,5.03
2022-09-07T18:51:09.675Z,23.02
2022-09-07T18:53:39.851Z,22.58
2022-09-07T18:58:58.183Z,4.70
2022-09-07T19:01:33.825Z,15.37
2022-09-07T19:04:03.973Z,17.08
2022-09-07T19:06:30.571Z,24.67
2022-09-07T19:09:07.595Z,16.48
2022-09-07T19:11:41.668Z,17.10
2022-09-07T19:14:17.438Z,36.70
2022-09-07T19:17:04.843Z,31.92
2022-09-07T19:19:36.011Z,39.78
2022-09-07T19:22:30.320Z,31.23
2022-09-07T19:54:43.307Z,9.38
2022-09-07T19:57:10.112Z,6.20
2022-09-07T19:59:37.001Z,4.07
2022-09-07T20:02:24.023Z,4.43
2022-09-07T20:04:50.759Z,4.50
2022-09-07T20:07:34.010Z,4.25
2022-09-07T20:10:00.797Z,4.23
2022-09-07T20:12:27.456Z,3.60
2022-09-07T20:14:54.190Z,3.42
2022-09-07T20:17:20.820Z,20.05
2022-09-07T20:19:50.407Z,9.20
2022-09-07T20:22:17.097Z,10.10
2022-09-07T20:24:56.223Z,5.13
2022-09-07T20:27:25.733Z,5.00
2022-09-07T20:29:53.735Z,4.68
2022-09-07T20:32:22.799Z,4.30
2022-09-07T20:35:17.123Z,5.43
2022-09-07T20:37:48.765Z,4.30
2022-09-07T20:40:23.986Z,4.60
2022-09-07T20:43:02.242Z,3.40
2022-09-07T20:45:35.365Z,4.28
2022-09-07T20:48:02.160Z,5.10
2022-09-07T20:50:31.413Z,3.60
2022-09-07T20:53:04.003Z,4.85
2022-09-07T20:55:30.637Z,4.93
2022-09-07T20:58:09.104Z,3.53
2022-09-07T21:00:35.832Z,3.43
2022-09-07T21:03:02.622Z,3.42
2022-09-07T21:05:37.687Z,5.40
2022-09-07T21:08:04.796Z,2.83
2022-09-07T21:26:54.919Z,8.57
2022-09-07T21:29:26.674Z,4.22
2022-09-07T21:32:04.001Z,10.00
2022-09-07T21:34:31.264Z,8.57
2022-09-07T21:37:03.599Z,6.97
2022-09-07T21:50:27.558Z,3.55
2022-09-07T21:52:55.133Z,3.20
2022-09-07T21:55:24.192Z,3.13
2022-09-07T21:57:51.084Z,4.82
2022-09-07T22:06:36.956Z,2.30
2022-09-07T22:09:04.633Z,2.50
2022-09-07T22:11:45.285Z,2.20
2022-09-07T22:14:40.036Z,3.95
2022-09-07T22:17:06.992Z,2.35
2022-09-07T22:19:36.592Z,3.27
2022-09-07T22:22:11.126Z,2.67
2022-09-07T22:24:37.979Z,2.40
2022-09-07T22:27:04.857Z,4.43
2022-09-07T22:29:31.652Z,3.95
2022-09-07T22:32:29.354Z,2.93
2022-09-07T22:35:31.026Z,3.88
2022-09-07T22:37:56.929Z,11.55
2022-09-07T22:40:24.094Z,3.28
2022-09-07T22:43:00.513Z,4.45
2022-09-07T22:45:32.677Z,3.93
2022-09-07T22:48:05.482Z,3.33
2022-09-07T22:50:57.210Z,3.42
2022-09-07T22:53:27.343Z,6.45
2022-09-07T22:55:54.914Z,3.70
2022-09-07T22:58:38.924Z,7.53
2022-09-07T23:01:18.241Z,4.90
2022-09-07T23:03:45.338Z,4.15
2022-09-07T23:06:21.580Z,12.23
2022-09-07T23:08:49.162Z,3.53
2022-09-07T23:11:25.543Z,5.47
2022-09-07T23:14:02.876Z,3.95
2022-09-07T23:16:42.670Z,12.30
2022-09-07T23:19:10.700Z,5.10
2022-09-07T23:21:37.825Z,4.57
2022-09-07T23:26:45.892Z,5.25
2022-09-07T23:29:24.056Z,7.30
2022-09-07T23:31:50.793Z,8.02
2022-09-07T23:34:17.497Z,6.55
2022-09-07T23:36:48.279Z,7.60
2022-09-07T23:39:14.952Z,11.65
2022-09-07T23:41:52.841Z,4.25
2022-09-07T23:44:19.809Z,5.15
2022-09-07T23:49:38.971Z,8.23
2022-09-07T23:52:14.508Z,10.05
2022-09-07T23:54:41.243Z,5.10
2022-09-07T23:57:17.022Z,9.85
2022-09-07T23:59:43.657Z,4.28
